sensor_id;sensor_type;location;lat;lon;timestamp;P1;durP1;ratioP1;P2;durP2;ratioP2
22610;SDS011;11472;45.494;12.142;2023-04-03T00:00:00;9.70;;;4.90;;
22610;SDS011;11472;45.494;12.142;2023-04-03T00:01:01;9.80;;;5.20;;
22610;SDS011;11472;45.494;12.142;2023-04-03T00:02:01;9.80;;;5.20;;
22610;SDS011;11472;45.494;12.142;2023-04-03T00:03:01;9.80;;;5.20;;
22610;SDS011;11472;45.494;12.142;2023-04-03T00:04:01;9.80;;;5.20;;
22610;SDS011;11472;45.494;12.142;2023-04-03T00:05:01;9.80;;;5.20;;
22610;SDS011;11472;45.494;12.142;2023-04-03T00:06:01;9.80;;;5.20;;
22610;SDS011;11472;45.494;12.142;2023-04-03T00:07:00;9.80;;;5.20;;
22610;SDS011;11472;45.494;12.142;2023-04-03T00:08:01;9.80;;;5.20;;
22610;SDS011;11472;45.494;12.142;2023-04-03T00:09:01;9.80;;;5.20;;
22610;SDS011;11472;45.494;12.142;2023-04-03T00:10:00;9.80;;;5.20;;
22610;SDS011;11472;45.494;12.142;2023-04-03T00:11:01;9.80;;;5.20;;
22610;SDS011;11472;45.494;12.142;2023-04-03T00:12:00;9.80;;;5.20;;
22610;SDS011;11472;45.494;12.142;2023-04-03T00:13:01;9.80;;;5.20;;
22610;SDS011;11472;45.494;12.142;2023-04-03T00:14:01;9.80;;;5.20;;
22610;SDS011;11472;45.494;12.142;2023-04-03T00:15:01;9.80;;;5.20;;
22610;SDS011;11472;45.494;12.142;2023-04-03T00:16:01;8.40;;;5.30;;
22610;SDS011;11472;45.494;12.142;2023-04-03T00:17:01;8.40;;;5.30;;
22610;SDS011;11472;45.494;12.142;2023-04-03T00:18:01;8.40;;;5.30;;
22610;SDS011;11472;45.494;12.142;2023-04-03T00:19:00;8.40;;;5.30;;
22610;SDS011;11472;45.494;12.142;2023-04-03T00:20:01;8.40;;;5.30;;
22610;SDS011;11472;45.494;12.142;2023-04-03T00:21:01;8.40;;;5.30;;
22610;SDS011;11472;45.494;12.142;2023-04-03T00:22:00;8.40;;;5.30;;
22610;SDS011;11472;45.494;12.142;2023-04-03T00:23:01;8.40;;;5.30;;
22610;SDS011;11472;45.494;12.142;2023-04-03T00:24:00;8.40;;;5.30;;
22610;SDS011;11472;45.494;12.142;2023-04-03T00:25:01;8.40;;;5.30;;
22610;SDS011;11472;45.494;12.142;2023-04-03T00:26:01;8.40;;;5.30;;
22610;SDS011;11472;45.494;12.142;2023-04-03T00:27:00;8.40;;;5.30;;
22610;SDS011;11472;45.494;12.142;2023-04-03T00:28:01;8.40;;;5.30;;
22610;SDS011;11472;45.494;12.142;2023-04-03T00:29:00;8.40;;;5.30;;
22610;SDS011;11472;45.494;12.142;2023-04-03T00:30:00;8.40;;;5.30;;
22610;SDS011;11472;45.494;12.142;2023-04-03T00:31:01;11.70;;;7.80;;
22610;SDS011;11472;45.494;12.142;2023-04-03T00:32:00;11.70;;;7.80;;
22610;SDS011;11472;45.494;12.142;2023-04-03T00:33:01;11.70;;;7.80;;
22610;SDS011;11472;45.494;12.142;2023-04-03T00:34:01;11.70;;;7.80;;
22610;SDS011;11472;45.494;12.142;2023-04-03T00:35:02;11.70;;;7.80;;
22610;SDS011;11472;45.494;12.142;2023-04-03T00:36:06;11.70;;;7.80;;
22610;SDS011;11472;45.494;12.142;2023-04-03T00:37:01;11.70;;;7.80;;
22610;SDS011;11472;45.494;12.142;2023-04-03T00:38:01;11.70;;;7.80;;
22610;SDS011;11472;45.494;12.142;2023-04-03T00:39:00;11.70;;;7.80;;
22610;SDS011;11472;45.494;12.142;2023-04-03T00:40:01;11.70;;;7.80;;
22610;SDS011;11472;45.494;12.142;2023-04-03T00:41:00;11.70;;;7.80;;
22610;SDS011;11472;45.494;12.142;2023-04-03T00:42:00;11.70;;;7.80;;
22610;SDS011;11472;45.494;12.142;2023-04-03T00:43:01;11.70;;;7.80;;
22610;SDS011;11472;45.494;12.142;2023-04-03T00:44:01;11.70;;;7.80;;
22610;SDS011;11472;45.494;12.142;2023-04-03T00:46:01;12.10;;;7.70;;
22610;SDS011;11472;45.494;12.142;2023-04-03T00:47:01;12.10;;;7.70;;
22610;SDS011;11472;45.494;12.142;2023-04-03T00:48:02;12.10;;;7.70;;
22610;SDS011;11472;45.494;12.142;2023-04-03T00:49:00;12.10;;;7.70;;
22610;SDS011;11472;45.494;12.142;2023-04-03T00:50:02;12.10;;;7.70;;
22610;SDS011;11472;45.494;12.142;2023-04-03T00:51:01;12.10;;;7.70;;
22610;SDS011;11472;45.494;12.142;2023-04-03T00:52:00;12.10;;;7.70;;
22610;SDS011;11472;45.494;12.142;2023-04-03T00:53:01;12.10;;;7.70;;
22610;SDS011;11472;45.494;12.142;2023-04-03T00:54:02;12.10;;;7.70;;
22610;SDS011;11472;45.494;12.142;2023-04-03T00:55:04;12.10;;;7.70;;
22610;SDS011;11472;45.494;12.142;2023-04-03T00:56:01;12.10;;;7.70;;
22610;SDS011;11472;45.494;12.142;2023-04-03T00:57:02;12.10;;;7.70;;
22610;SDS011;11472;45.494;12.142;2023-04-03T00:58:00;12.10;;;7.70;;
22610;SDS011;11472;45.494;12.142;2023-04-03T00:59:06;12.10;;;7.70;;
22610;SDS011;11472;45.494;12.142;2023-04-03T01:00:05;12.10;;;7.70;;
22610;SDS011;11472;45.494;12.142;2023-04-03T01:01:03;13.70;;;7.30;;
22610;SDS011;11472;45.494;12.142;2023-04-03T01:02:01;13.70;;;7.30;;
22610;SDS011;11472;45.494;12.142;2023-04-03T01:03:00;13.70;;;7.30;;
22610;SDS011;11472;45.494;12.142;2023-04-03T01:04:03;13.70;;;7.30;;
22610;SDS011;11472;45.494;12.142;2023-04-03T01:05:00;13.70;;;7.30;;
22610;SDS011;11472;45.494;12.142;2023-04-03T01:06:00;13.70;;;7.30;;
22610;SDS011;11472;45.494;12.142;2023-04-03T01:07:04;13.70;;;7.30;;
22610;SDS011;11472;45.494;12.142;2023-04-03T01:08:00;13.70;;;7.30;;
22610;SDS011;11472;45.494;12.142;2023-04-03T01:09:01;13.70;;;7.30;;
22610;SDS011;11472;45.494;12.142;2023-04-03T01:10:03;13.70;;;7.30;;
22610;SDS011;11472;45.494;12.142;2023-04-03T01:11:00;13.70;;;7.30;;
22610;SDS011;11472;45.494;12.142;2023-04-03T01:12:16;13.70;;;7.30;;
22610;SDS011;11472;45.494;12.142;2023-04-03T01:13:01;13.70;;;7.30;;
22610;SDS011;11472;45.494;12.142;2023-04-03T01:14:01;13.70;;;7.30;;
22610;SDS011;11472;45.494;12.142;2023-04-03T01:15:05;13.70;;;7.30;;
22610;SDS011;11472;45.494;12.142;2023-04-03T01:16:04;8.50;;;4.70;;
22610;SDS011;11472;45.494;12.142;2023-04-03T01:17:00;8.50;;;4.70;;
22610;SDS011;11472;45.494;12.142;2023-04-03T01:18:01;8.50;;;4.70;;
22610;SDS011;11472;45.494;12.142;2023-04-03T01:19:01;8.50;;;4.70;;
22610;SDS011;11472;45.494;12.142;2023-04-03T01:22:11;8.50;;;4.70;;
22610;SDS011;11472;45.494;12.142;2023-04-03T01:24:21;8.50;;;4.70;;
22610;SDS011;11472;45.494;12.142;2023-04-03T01:25:01;8.50;;;4.70;;
22610;SDS011;11472;45.494;12.142;2023-04-03T01:26:00;8.50;;;4.70;;
22610;SDS011;11472;45.494;12.142;2023-04-03T01:27:02;8.50;;;4.70;;
22610;SDS011;11472;45.494;12.142;2023-04-03T01:28:01;8.50;;;4.70;;
22610;SDS011;11472;45.494;12.142;2023-04-03T01:29:01;8.50;;;4.70;;
22610;SDS011;11472;45.494;12.142;2023-04-03T01:30:00;8.50;;;4.70;;
22610;SDS011;11472;45.494;12.142;2023-04-03T01:32:01;6.00;;;3.40;;
22610;SDS011;11472;45.494;12.142;2023-04-03T01:33:01;6.00;;;3.40;;
22610;SDS011;11472;45.494;12.142;2023-04-03T01:34:01;6.00;;;3.40;;
22610;SDS011;11472;45.494;12.142;2023-04-03T01:35:01;6.00;;;3.40;;
22610;SDS011;11472;45.494;12.142;2023-04-03T01:36:01;6.00;;;3.40;;
22610;SDS011;11472;45.494;12.142;2023-04-03T01:37:01;6.00;;;3.40;;
22610;SDS011;11472;45.494;12.142;2023-04-03T01:38:00;6.00;;;3.40;;
22610;SDS011;11472;45.494;12.142;2023-04-03T01:39:01;6.00;;;3.40;;
22610;SDS011;11472;45.494;12.142;2023-04-03T01:40:01;6.00;;;3.40;;
22610;SDS011;11472;45.494;12.142;2023-04-03T01:41:01;6.00;;;3.40;;
22610;SDS011;11472;45.494;12.142;2023-04-03T01:42:01;6.00;;;3.40;;
22610;SDS011;11472;45.494;12.142;2023-04-03T01:43:00;6.00;;;3.40;;
22610;SDS011;11472;45.494;12.142;2023-04-03T01:44:01;6.00;;;3.40;;
22610;SDS011;11472;45.494;12.142;2023-04-03T01:45:01;6.00;;;3.40;;
22610;SDS011;11472;45.494;12.142;2023-04-03T01:46:01;3.70;;;2.40;;
22610;SDS011;11472;45.494;12.142;2023-04-03T01:47:00;3.70;;;2.40;;
22610;SDS011;11472;45.494;12.142;2023-04-03T01:48:00;3.70;;;2.40;;
22610;SDS011;11472;45.494;12.142;2023-04-03T01:49:01;3.70;;;2.40;;
22610;SDS011;11472;45.494;12.142;2023-04-03T01:50:01;3.70;;;2.40;;
22610;SDS011;11472;45.494;12.142;2023-04-03T01:51:01;3.70;;;2.40;;
22610;SDS011;11472;45.494;12.142;2023-04-03T01:52:00;3.70;;;2.40;;
22610;SDS011;11472;45.494;12.142;2023-04-03T01:53:00;3.70;;;2.40;;
22610;SDS011;11472;45.494;12.142;2023-04-03T01:54:00;3.70;;;2.40;;
22610;SDS011;11472;45.494;12.142;2023-04-03T01:55:00;3.70;;;2.40;;
22610;SDS011;11472;45.494;12.142;2023-04-03T01:56:01;3.70;;;2.40;;
22610;SDS011;11472;45.494;12.142;2023-04-03T01:57:01;3.70;;;2.40;;
22610;SDS011;11472;45.494;12.142;2023-04-03T01:58:00;3.70;;;2.40;;
22610;SDS011;11472;45.494;12.142;2023-04-03T01:59:00;3.70;;;2.40;;
22610;SDS011;11472;45.494;12.142;2023-04-03T02:00:00;3.70;;;2.40;;
22610;SDS011;11472;45.494;12.142;2023-04-03T02:01:01;5.30;;;2.30;;
22610;SDS011;11472;45.494;12.142;2023-04-03T02:02:00;5.30;;;2.30;;
22610;SDS011;11472;45.494;12.142;2023-04-03T02:03:01;5.30;;;2.30;;
22610;SDS011;11472;45.494;12.142;2023-04-03T02:04:01;5.30;;;2.30;;
22610;SDS011;11472;45.494;12.142;2023-04-03T02:05:01;5.30;;;2.30;;
22610;SDS011;11472;45.494;12.142;2023-04-03T02:06:01;5.30;;;2.30;;
22610;SDS011;11472;45.494;12.142;2023-04-03T02:07:01;5.30;;;2.30;;
22610;SDS011;11472;45.494;12.142;2023-04-03T02:08:01;5.30;;;2.30;;
22610;SDS011;11472;45.494;12.142;2023-04-03T02:09:00;5.30;;;2.30;;
22610;SDS011;11472;45.494;12.142;2023-04-03T02:10:00;5.30;;;2.30;;
22610;SDS011;11472;45.494;12.142;2023-04-03T02:11:01;5.30;;;2.30;;
22610;SDS011;11472;45.494;12.142;2023-04-03T02:12:01;5.30;;;2.30;;
22610;SDS011;11472;45.494;12.142;2023-04-03T02:13:01;5.30;;;2.30;;
22610;SDS011;11472;45.494;12.142;2023-04-03T02:14:01;5.30;;;2.30;;
22610;SDS011;11472;45.494;12.142;2023-04-03T02:15:00;5.30;;;2.30;;
22610;SDS011;11472;45.494;12.142;2023-04-03T02:16:06;4.20;;;2.00;;
22610;SDS011;11472;45.494;12.142;2023-04-03T02:17:04;4.20;;;2.00;;
22610;SDS011;11472;45.494;12.142;2023-04-03T02:18:01;4.20;;;2.00;;
22610;SDS011;11472;45.494;12.142;2023-04-03T02:19:01;4.20;;;2.00;;
22610;SDS011;11472;45.494;12.142;2023-04-03T02:20:01;4.20;;;2.00;;
22610;SDS011;11472;45.494;12.142;2023-04-03T02:21:00;4.20;;;2.00;;
22610;SDS011;11472;45.494;12.142;2023-04-03T02:22:02;4.20;;;2.00;;
22610;SDS011;11472;45.494;12.142;2023-04-03T02:23:01;4.20;;;2.00;;
22610;SDS011;11472;45.494;12.142;2023-04-03T02:24:00;4.20;;;2.00;;
22610;SDS011;11472;45.494;12.142;2023-04-03T02:25:01;4.20;;;2.00;;
22610;SDS011;11472;45.494;12.142;2023-04-03T02:26:07;4.20;;;2.00;;
22610;SDS011;11472;45.494;12.142;2023-04-03T02:27:00;4.20;;;2.00;;
22610;SDS011;11472;45.494;12.142;2023-04-03T02:28:00;4.20;;;2.00;;
22610;SDS011;11472;45.494;12.142;2023-04-03T02:29:01;4.20;;;2.00;;
22610;SDS011;11472;45.494;12.142;2023-04-03T02:30:01;4.20;;;2.00;;
22610;SDS011;11472;45.494;12.142;2023-04-03T02:31:01;3.00;;;2.00;;
22610;SDS011;11472;45.494;12.142;2023-04-03T02:32:01;3.00;;;2.00;;
22610;SDS011;11472;45.494;12.142;2023-04-03T02:33:00;3.00;;;2.00;;
22610;SDS011;11472;45.494;12.142;2023-04-03T02:34:00;3.00;;;2.00;;
22610;SDS011;11472;45.494;12.142;2023-04-03T02:35:00;3.00;;;2.00;;
22610;SDS011;11472;45.494;12.142;2023-04-03T02:36:01;3.00;;;2.00;;
22610;SDS011;11472;45.494;12.142;2023-04-03T02:37:00;3.00;;;2.00;;
22610;SDS011;11472;45.494;12.142;2023-04-03T02:38:00;3.00;;;2.00;;
22610;SDS011;11472;45.494;12.142;2023-04-03T02:39:00;3.00;;;2.00;;
22610;SDS011;11472;45.494;12.142;2023-04-03T02:40:01;3.00;;;2.00;;
22610;SDS011;11472;45.494;12.142;2023-04-03T02:41:04;3.00;;;2.00;;
22610;SDS011;11472;45.494;12.142;2023-04-03T02:42:01;3.00;;;2.00;;
22610;SDS011;11472;45.494;12.142;2023-04-03T02:43:00;3.00;;;2.00;;
22610;SDS011;11472;45.494;12.142;2023-04-03T02:44:02;3.00;;;2.00;;
22610;SDS011;11472;45.494;12.142;2023-04-03T02:45:01;3.00;;;2.00;;
22610;SDS011;11472;45.494;12.142;2023-04-03T02:46:01;2.80;;;2.00;;
22610;SDS011;11472;45.494;12.142;2023-04-03T02:47:01;2.80;;;2.00;;
22610;SDS011;11472;45.494;12.142;2023-04-03T02:48:01;2.80;;;2.00;;
22610;SDS011;11472;45.494;12.142;2023-04-03T02:49:01;2.80;;;2.00;;
22610;SDS011;11472;45.494;12.142;2023-04-03T02:50:00;2.80;;;2.00;;
22610;SDS011;11472;45.494;12.142;2023-04-03T02:51:01;2.80;;;2.00;;
22610;SDS011;11472;45.494;12.142;2023-04-03T02:52:01;2.80;;;2.00;;
22610;SDS011;11472;45.494;12.142;2023-04-03T02:53:01;2.80;;;2.00;;
22610;SDS011;11472;45.494;12.142;2023-04-03T02:54:01;2.80;;;2.00;;
22610;SDS011;11472;45.494;12.142;2023-04-03T02:55:00;2.80;;;2.00;;
22610;SDS011;11472;45.494;12.142;2023-04-03T02:56:00;2.80;;;2.00;;
22610;SDS011;11472;45.494;12.142;2023-04-03T02:57:01;2.80;;;2.00;;
22610;SDS011;11472;45.494;12.142;2023-04-03T02:58:01;2.80;;;2.00;;
22610;SDS011;11472;45.494;12.142;2023-04-03T02:59:01;2.80;;;2.00;;
22610;SDS011;11472;45.494;12.142;2023-04-03T03:00:01;2.80;;;2.00;;
22610;SDS011;11472;45.494;12.142;2023-04-03T03:01:01;8.20;;;6.00;;
22610;SDS011;11472;45.494;12.142;2023-04-03T03:02:01;8.20;;;6.00;;
22610;SDS011;11472;45.494;12.142;2023-04-03T03:03:01;8.20;;;6.00;;
22610;SDS011;11472;45.494;12.142;2023-04-03T03:04:01;8.20;;;6.00;;
22610;SDS011;11472;45.494;12.142;2023-04-03T03:05:01;8.20;;;6.00;;
22610;SDS011;11472;45.494;12.142;2023-04-03T03:06:04;8.20;;;6.00;;
22610;SDS011;11472;45.494;12.142;2023-04-03T03:07:01;8.20;;;6.00;;
22610;SDS011;11472;45.494;12.142;2023-04-03T03:08:00;8.20;;;6.00;;
22610;SDS011;11472;45.494;12.142;2023-04-03T03:09:01;8.20;;;6.00;;
22610;SDS011;11472;45.494;12.142;2023-04-03T03:10:00;8.20;;;6.00;;
22610;SDS011;11472;45.494;12.142;2023-04-03T03:11:01;8.20;;;6.00;;
22610;SDS011;11472;45.494;12.142;2023-04-03T03:12:01;8.20;;;6.00;;
22610;SDS011;11472;45.494;12.142;2023-04-03T03:13:01;8.20;;;6.00;;
22610;SDS011;11472;45.494;12.142;2023-04-03T03:14:01;8.20;;;6.00;;
22610;SDS011;11472;45.494;12.142;2023-04-03T03:15:00;8.20;;;6.00;;
22610;SDS011;11472;45.494;12.142;2023-04-03T03:16:01;7.50;;;5.20;;
22610;SDS011;11472;45.494;12.142;2023-04-03T03:17:01;7.50;;;5.20;;
22610;SDS011;11472;45.494;12.142;2023-04-03T03:18:01;7.50;;;5.20;;
22610;SDS011;11472;45.494;12.142;2023-04-03T03:19:00;7.50;;;5.20;;
22610;SDS011;11472;45.494;12.142;2023-04-03T03:20:00;7.50;;;5.20;;
22610;SDS011;11472;45.494;12.142;2023-04-03T03:21:01;7.50;;;5.20;;
22610;SDS011;11472;45.494;12.142;2023-04-03T03:22:00;7.50;;;5.20;;
22610;SDS011;11472;45.494;12.142;2023-04-03T03:23:01;7.50;;;5.20;;
22610;SDS011;11472;45.494;12.142;2023-04-03T03:24:01;7.50;;;5.20;;
22610;SDS011;11472;45.494;12.142;2023-04-03T03:25:02;7.50;;;5.20;;
22610;SDS011;11472;45.494;12.142;2023-04-03T03:26:04;7.50;;;5.20;;
22610;SDS011;11472;45.494;12.142;2023-04-03T03:27:01;7.50;;;5.20;;
22610;SDS011;11472;45.494;12.142;2023-04-03T03:28:00;7.50;;;5.20;;
22610;SDS011;11472;45.494;12.142;2023-04-03T03:29:01;7.50;;;5.20;;
22610;SDS011;11472;45.494;12.142;2023-04-03T03:30:00;7.50;;;5.20;;
22610;SDS011;11472;45.494;12.142;2023-04-03T03:31:01;10.20;;;5.60;;
22610;SDS011;11472;45.494;12.142;2023-04-03T03:32:01;10.20;;;5.60;;
22610;SDS011;11472;45.494;12.142;2023-04-03T03:33:01;10.20;;;5.60;;
22610;SDS011;11472;45.494;12.142;2023-04-03T03:34:00;10.20;;;5.60;;
22610;SDS011;11472;45.494;12.142;2023-04-03T03:35:00;10.20;;;5.60;;
22610;SDS011;11472;45.494;12.142;2023-04-03T03:36:01;10.20;;;5.60;;
22610;SDS011;11472;45.494;12.142;2023-04-03T03:37:00;10.20;;;5.60;;
22610;SDS011;11472;45.494;12.142;2023-04-03T03:38:01;10.20;;;5.60;;
22610;SDS011;11472;45.494;12.142;2023-04-03T03:39:00;10.20;;;5.60;;
22610;SDS011;11472;45.494;12.142;2023-04-03T03:40:00;10.20;;;5.60;;
22610;SDS011;11472;45.494;12.142;2023-04-03T03:41:01;10.20;;;5.60;;
22610;SDS011;11472;45.494;12.142;2023-04-03T03:42:00;10.20;;;5.60;;
22610;SDS011;11472;45.494;12.142;2023-04-03T03:43:00;10.20;;;5.60;;
22610;SDS011;11472;45.494;12.142;2023-04-03T03:44:01;10.20;;;5.60;;
22610;SDS011;11472;45.494;12.142;2023-04-03T03:45:01;10.20;;;5.60;;
22610;SDS011;11472;45.494;12.142;2023-04-03T03:46:01;6.50;;;3.60;;
22610;SDS011;11472;45.494;12.142;2023-04-03T03:47:01;6.50;;;3.60;;
22610;SDS011;11472;45.494;12.142;2023-04-03T03:48:01;6.50;;;3.60;;
22610;SDS011;11472;45.494;12.142;2023-04-03T03:49:00;6.50;;;3.60;;
22610;SDS011;11472;45.494;12.142;2023-04-03T03:50:01;6.50;;;3.60;;
22610;SDS011;11472;45.494;12.142;2023-04-03T03:51:00;6.50;;;3.60;;
22610;SDS011;11472;45.494;12.142;2023-04-03T03:52:00;6.50;;;3.60;;
22610;SDS011;11472;45.494;12.142;2023-04-03T03:53:01;6.50;;;3.60;;
22610;SDS011;11472;45.494;12.142;2023-04-03T03:54:01;6.50;;;3.60;;
22610;SDS011;11472;45.494;12.142;2023-04-03T03:55:00;6.50;;;3.60;;
22610;SDS011;11472;45.494;12.142;2023-04-03T03:56:01;6.50;;;3.60;;
22610;SDS011;11472;45.494;12.142;2023-04-03T03:57:01;6.50;;;3.60;;
22610;SDS011;11472;45.494;12.142;2023-04-03T03:58:01;6.50;;;3.60;;
22610;SDS011;11472;45.494;12.142;2023-04-03T03:59:00;6.50;;;3.60;;
22610;SDS011;11472;45.494;12.142;2023-04-03T04:00:00;6.50;;;3.60;;
22610;SDS011;11472;45.494;12.142;2023-04-03T04:01:02;5.50;;;3.20;;
22610;SDS011;11472;45.494;12.142;2023-04-03T04:02:01;5.50;;;3.20;;
22610;SDS011;11472;45.494;12.142;2023-04-03T04:03:01;5.50;;;3.20;;
22610;SDS011;11472;45.494;12.142;2023-04-03T04:04:01;5.50;;;3.20;;
22610;SDS011;11472;45.494;12.142;2023-04-03T04:05:00;5.50;;;3.20;;
22610;SDS011;11472;45.494;12.142;2023-04-03T04:06:01;5.50;;;3.20;;
22610;SDS011;11472;45.494;12.142;2023-04-03T04:07:00;5.50;;;3.20;;
22610;SDS011;11472;45.494;12.142;2023-04-03T04:08:00;5.50;;;3.20;;
22610;SDS011;11472;45.494;12.142;2023-04-03T04:09:00;5.50;;;3.20;;
22610;SDS011;11472;45.494;12.142;2023-04-03T04:10:01;5.50;;;3.20;;
22610;SDS011;11472;45.494;12.142;2023-04-03T04:11:00;5.50;;;3.20;;
22610;SDS011;11472;45.494;12.142;2023-04-03T04:12:00;5.50;;;3.20;;
22610;SDS011;11472;45.494;12.142;2023-04-03T04:13:00;5.50;;;3.20;;
22610;SDS011;11472;45.494;12.142;2023-04-03T04:14:00;5.50;;;3.20;;
22610;SDS011;11472;45.494;12.142;2023-04-03T04:15:01;5.50;;;3.20;;
22610;SDS011;11472;45.494;12.142;2023-04-03T04:16:01;8.70;;;3.00;;
22610;SDS011;11472;45.494;12.142;2023-04-03T04:17:02;8.70;;;3.00;;
22610;SDS011;11472;45.494;12.142;2023-04-03T04:18:01;8.70;;;3.00;;
22610;SDS011;11472;45.494;12.142;2023-04-03T04:19:00;8.70;;;3.00;;
22610;SDS011;11472;45.494;12.142;2023-04-03T04:20:02;8.70;;;3.00;;
22610;SDS011;11472;45.494;12.142;2023-04-03T04:21:00;8.70;;;3.00;;
22610;SDS011;11472;45.494;12.142;2023-04-03T04:22:00;8.70;;;3.00;;
22610;SDS011;11472;45.494;12.142;2023-04-03T04:23:01;8.70;;;3.00;;
22610;SDS011;11472;45.494;12.142;2023-04-03T04:24:01;8.70;;;3.00;;
22610;SDS011;11472;45.494;12.142;2023-04-03T04:25:01;8.70;;;3.00;;
22610;SDS011;11472;45.494;12.142;2023-04-03T04:26:00;8.70;;;3.00;;
22610;SDS011;11472;45.494;12.142;2023-04-03T04:27:01;8.70;;;3.00;;
22610;SDS011;11472;45.494;12.142;2023-04-03T04:28:00;8.70;;;3.00;;
22610;SDS011;11472;45.494;12.142;2023-04-03T04:29:01;8.70;;;3.00;;
22610;SDS011;11472;45.494;12.142;2023-04-03T04:30:01;8.70;;;3.00;;
22610;SDS011;11472;45.494;12.142;2023-04-03T04:31:01;5.50;;;3.10;;
22610;SDS011;11472;45.494;12.142;2023-04-03T04:32:01;5.50;;;3.10;;
22610;SDS011;11472;45.494;12.142;2023-04-03T04:33:01;5.50;;;3.10;;
22610;SDS011;11472;45.494;12.142;2023-04-03T04:34:00;5.50;;;3.10;;
22610;SDS011;11472;45.494;12.142;2023-04-03T04:35:01;5.50;;;3.10;;
22610;SDS011;11472;45.494;12.142;2023-04-03T04:36:01;5.50;;;3.10;;
22610;SDS011;11472;45.494;12.142;2023-04-03T04:37:01;5.50;;;3.10;;
22610;SDS011;11472;45.494;12.142;2023-04-03T04:38:01;5.50;;;3.10;;
22610;SDS011;11472;45.494;12.142;2023-04-03T04:39:00;5.50;;;3.10;;
22610;SDS011;11472;45.494;12.142;2023-04-03T04:40:00;5.50;;;3.10;;
22610;SDS011;11472;45.494;12.142;2023-04-03T04:41:00;5.50;;;3.10;;
22610;SDS011;11472;45.494;12.142;2023-04-03T04:42:00;5.50;;;3.10;;
22610;SDS011;11472;45.494;12.142;2023-04-03T04:43:00;5.50;;;3.10;;
22610;SDS011;11472;45.494;12.142;2023-04-03T04:44:00;5.50;;;3.10;;
22610;SDS011;11472;45.494;12.142;2023-04-03T04:45:01;5.50;;;3.10;;
22610;SDS011;11472;45.494;12.142;2023-04-03T04:46:02;8.30;;;3.40;;
22610;SDS011;11472;45.494;12.142;2023-04-03T04:47:00;8.30;;;3.40;;
22610;SDS011;11472;45.494;12.142;2023-04-03T04:48:01;8.30;;;3.40;;
22610;SDS011;11472;45.494;12.142;2023-04-03T04:49:00;8.30;;;3.40;;
22610;SDS011;11472;45.494;12.142;2023-04-03T04:50:01;8.30;;;3.40;;
22610;SDS011;11472;45.494;12.142;2023-04-03T04:51:01;8.30;;;3.40;;
22610;SDS011;11472;45.494;12.142;2023-04-03T04:52:00;8.30;;;3.40;;
22610;SDS011;11472;45.494;12.142;2023-04-03T04:53:00;8.30;;;3.40;;
22610;SDS011;11472;45.494;12.142;2023-04-03T04:54:01;8.30;;;3.40;;
22610;SDS011;11472;45.494;12.142;2023-04-03T04:55:01;8.30;;;3.40;;
22610;SDS011;11472;45.494;12.142;2023-04-03T04:56:01;8.30;;;3.40;;
22610;SDS011;11472;45.494;12.142;2023-04-03T04:57:01;8.30;;;3.40;;
22610;SDS011;11472;45.494;12.142;2023-04-03T04:58:00;8.30;;;3.40;;
22610;SDS011;11472;45.494;12.142;2023-04-03T04:59:01;8.30;;;3.40;;
22610;SDS011;11472;45.494;12.142;2023-04-03T05:00:00;8.30;;;3.40;;
22610;SDS011;11472;45.494;12.142;2023-04-03T05:01:02;9.20;;;4.10;;
22610;SDS011;11472;45.494;12.142;2023-04-03T05:02:00;9.20;;;4.10;;
22610;SDS011;11472;45.494;12.142;2023-04-03T05:03:00;9.20;;;4.10;;
22610;SDS011;11472;45.494;12.142;2023-04-03T05:04:00;9.20;;;4.10;;
22610;SDS011;11472;45.494;12.142;2023-04-03T05:05:02;9.20;;;4.10;;
22610;SDS011;11472;45.494;12.142;2023-04-03T05:06:03;9.20;;;4.10;;
22610;SDS011;11472;45.494;12.142;2023-04-03T05:07:00;9.20;;;4.10;;
22610;SDS011;11472;45.494;12.142;2023-04-03T05:08:01;9.20;;;4.10;;
22610;SDS011;11472;45.494;12.142;2023-04-03T05:09:01;9.20;;;4.10;;
22610;SDS011;11472;45.494;12.142;2023-04-03T05:10:01;9.20;;;4.10;;
22610;SDS011;11472;45.494;12.142;2023-04-03T05:11:00;9.20;;;4.10;;
22610;SDS011;11472;45.494;12.142;2023-04-03T05:12:01;9.20;;;4.10;;
22610;SDS011;11472;45.494;12.142;2023-04-03T05:13:00;9.20;;;4.10;;
22610;SDS011;11472;45.494;12.142;2023-04-03T05:14:00;9.20;;;4.10;;
22610;SDS011;11472;45.494;12.142;2023-04-03T05:15:00;9.20;;;4.10;;
22610;SDS011;11472;45.494;12.142;2023-04-03T05:16:01;8.30;;;3.90;;
22610;SDS011;11472;45.494;12.142;2023-04-03T05:17:00;8.30;;;3.90;;
22610;SDS011;11472;45.494;12.142;2023-04-03T05:18:01;8.30;;;3.90;;
22610;SDS011;11472;45.494;12.142;2023-04-03T05:19:00;8.30;;;3.90;;
22610;SDS011;11472;45.494;12.142;2023-04-03T05:20:01;8.30;;;3.90;;
22610;SDS011;11472;45.494;12.142;2023-04-03T05:21:00;8.30;;;3.90;;
22610;SDS011;11472;45.494;12.142;2023-04-03T05:22:00;8.30;;;3.90;;
22610;SDS011;11472;45.494;12.142;2023-04-03T05:23:01;8.30;;;3.90;;
22610;SDS011;11472;45.494;12.142;2023-04-03T05:24:02;8.30;;;3.90;;
22610;SDS011;11472;45.494;12.142;2023-04-03T05:25:00;8.30;;;3.90;;
22610;SDS011;11472;45.494;12.142;2023-04-03T05:26:01;8.30;;;3.90;;
22610;SDS011;11472;45.494;12.142;2023-04-03T05:27:00;8.30;;;3.90;;
22610;SDS011;11472;45.494;12.142;2023-04-03T05:28:01;8.30;;;3.90;;
22610;SDS011;11472;45.494;12.142;2023-04-03T05:29:01;8.30;;;3.90;;
22610;SDS011;11472;45.494;12.142;2023-04-03T05:30:01;8.30;;;3.90;;
22610;SDS011;11472;45.494;12.142;2023-04-03T05:31:01;10.90;;;3.40;;
22610;SDS011;11472;45.494;12.142;2023-04-03T05:32:01;10.90;;;3.40;;
22610;SDS011;11472;45.494;12.142;2023-04-03T05:33:01;10.90;;;3.40;;
22610;SDS011;11472;45.494;12.142;2023-04-03T05:34:01;10.90;;;3.40;;
22610;SDS011;11472;45.494;12.142;2023-04-03T05:35:01;10.90;;;3.40;;
22610;SDS011;11472;45.494;12.142;2023-04-03T05:36:03;10.90;;;3.40;;
22610;SDS011;11472;45.494;12.142;2023-04-03T05:37:03;10.90;;;3.40;;
22610;SDS011;11472;45.494;12.142;2023-04-03T05:38:00;10.90;;;3.40;;
22610;SDS011;11472;45.494;12.142;2023-04-03T05:39:01;10.90;;;3.40;;
22610;SDS011;11472;45.494;12.142;2023-04-03T05:40:01;10.90;;;3.40;;
22610;SDS011;11472;45.494;12.142;2023-04-03T05:41:00;10.90;;;3.40;;
22610;SDS011;11472;45.494;12.142;2023-04-03T05:42:00;10.90;;;3.40;;
22610;SDS011;11472;45.494;12.142;2023-04-03T05:43:01;10.90;;;3.40;;
22610;SDS011;11472;45.494;12.142;2023-04-03T05:44:01;10.90;;;3.40;;
22610;SDS011;11472;45.494;12.142;2023-04-03T05:45:01;10.90;;;3.40;;
22610;SDS011;11472;45.494;12.142;2023-04-03T05:46:01;9.60;;;2.70;;
22610;SDS011;11472;45.494;12.142;2023-04-03T05:47:01;9.60;;;2.70;;
22610;SDS011;11472;45.494;12.142;2023-04-03T05:48:00;9.60;;;2.70;;
22610;SDS011;11472;45.494;12.142;2023-04-03T05:49:00;9.60;;;2.70;;
22610;SDS011;11472;45.494;12.142;2023-04-03T05:50:01;9.60;;;2.70;;
22610;SDS011;11472;45.494;12.142;2023-04-03T05:51:00;9.60;;;2.70;;
22610;SDS011;11472;45.494;12.142;2023-04-03T05:52:01;9.60;;;2.70;;
22610;SDS011;11472;45.494;12.142;2023-04-03T05:53:01;9.60;;;2.70;;
22610;SDS011;11472;45.494;12.142;2023-04-03T05:54:20;9.60;;;2.70;;
22610;SDS011;11472;45.494;12.142;2023-04-03T05:55:01;9.60;;;2.70;;
22610;SDS011;11472;45.494;12.142;2023-04-03T05:56:00;9.60;;;2.70;;
22610;SDS011;11472;45.494;12.142;2023-04-03T05:57:01;9.60;;;2.70;;
22610;SDS011;11472;45.494;12.142;2023-04-03T05:58:00;9.60;;;2.70;;
22610;SDS011;11472;45.494;12.142;2023-04-03T05:59:01;9.60;;;2.70;;